sensor_id;sensor_type;location;lat;lon;timestamp;P1;durP1;ratioP1;P2;durP2;ratioP2
12838;SDS011;6486;51.034;5.262;2023-07-02T00:01:10;2.53;;;1.83;;
12838;SDS011;6486;51.034;5.262;2023-07-02T00:03:37;3.53;;;3.07;;
12838;SDS011;6486;51.034;5.262;2023-07-02T00:06:03;6.10;;;2.53;;
12838;SDS011;6486;51.034;5.262;2023-07-02T00:08:29;2.47;;;1.83;;
12838;SDS011;6486;51.034;5.262;2023-07-02T00:10:54;5.60;;;2.50;;
12838;SDS011;6486;51.034;5.262;2023-07-02T00:13:20;8.17;;;2.20;;
12838;SDS011;6486;51.034;5.262;2023-07-02T00:15:45;4.10;;;2.03;;
12838;SDS011;6486;51.034;5.262;2023-07-02T00:18:11;3.13;;;1.97;;
12838;SDS011;6486;51.034;5.262;2023-07-02T00:20:41;1.70;;;1.60;;
12838;SDS011;6486;51.034;5.262;2023-07-02T00:23:08;4.33;;;2.33;;
12838;SDS011;6486;51.034;5.262;2023-07-02T00:25:34;3.30;;;1.87;;
12838;SDS011;6486;51.034;5.262;2023-07-02T00:28:00;2.73;;;0.97;;
12838;SDS011;6486;51.034;5.262;2023-07-02T00:30:26;3.70;;;1.83;;
12838;SDS011;6486;51.034;5.262;2023-07-02T00:32:52;2.50;;;1.70;;
12838;SDS011;6486;51.034;5.262;2023-07-02T00:35:17;1.50;;;1.23;;
12838;SDS011;6486;51.034;5.262;2023-07-02T00:37:43;3.87;;;2.13;;
12838;SDS011;6486;51.034;5.262;2023-07-02T00:40:08;5.80;;;2.57;;
12838;SDS011;6486;51.034;5.262;2023-07-02T00:42:34;1.73;;;1.63;;
12838;SDS011;6486;51.034;5.262;2023-07-02T00:45:00;5.87;;;2.77;;
12838;SDS011;6486;51.034;5.262;2023-07-02T00:47:30;4.60;;;2.17;;
12838;SDS011;6486;51.034;5.262;2023-07-02T00:49:57;5.63;;;2.40;;
12838;SDS011;6486;51.034;5.262;2023-07-02T00:52:23;1.70;;;1.43;;
12838;SDS011;6486;51.034;5.262;2023-07-02T00:54:50;3.80;;;1.37;;
12838;SDS011;6486;51.034;5.262;2023-07-02T00:57:16;2.50;;;2.30;;
12838;SDS011;6486;51.034;5.262;2023-07-02T00:59:42;3.50;;;2.57;;
12838;SDS011;6486;51.034;5.262;2023-07-02T01:04:29;2.33;;;1.50;;
12838;SDS011;6486;51.034;5.262;2023-07-02T01:06:55;3.83;;;2.63;;
12838;SDS011;6486;51.034;5.262;2023-07-02T01:09:24;9.73;;;2.23;;
12838;SDS011;6486;51.034;5.262;2023-07-02T01:11:56;4.30;;;2.80;;
12838;SDS011;6486;51.034;5.262;2023-07-02T01:14:25;4.80;;;1.83;;
12838;SDS011;6486;51.034;5.262;2023-07-02T01:16:54;6.60;;;3.07;;
12838;SDS011;6486;51.034;5.262;2023-07-02T01:20:05;3.50;;;2.30;;
12838;SDS011;6486;51.034;5.262;2023-07-02T01:22:06;6.13;;;3.47;;
12838;SDS011;6486;51.034;5.262;2023-07-02T01:24:32;3.20;;;2.43;;
12838;SDS011;6486;51.034;5.262;2023-07-02T01:26:58;3.23;;;1.77;;
12838;SDS011;6486;51.034;5.262;2023-07-02T01:29:28;9.13;;;4.07;;
12838;SDS011;6486;51.034;5.262;2023-07-02T01:31:54;5.37;;;2.80;;
12838;SDS011;6486;51.034;5.262;2023-07-02T01:34:20;7.73;;;3.17;;
12838;SDS011;6486;51.034;5.262;2023-07-02T01:36:46;3.67;;;3.37;;
12838;SDS011;6486;51.034;5.262;2023-07-02T01:39:11;5.83;;;2.70;;
12838;SDS011;6486;51.034;5.262;2023-07-02T01:41:41;4.57;;;1.83;;
12838;SDS011;6486;51.034;5.262;2023-07-02T01:44:15;6.33;;;4.10;;
12838;SDS011;6486;51.034;5.262;2023-07-02T01:46:41;6.03;;;2.63;;
12838;SDS011;6486;51.034;5.262;2023-07-02T01:49:06;3.93;;;2.03;;
12838;SDS011;6486;51.034;5.262;2023-07-02T01:51:32;3.03;;;2.73;;
12838;SDS011;6486;51.034;5.262;2023-07-02T01:53:59;7.40;;;4.50;;
12838;SDS011;6486;51.034;5.262;2023-07-02T01:56:24;12.00;;;3.70;;
12838;SDS011;6486;51.034;5.262;2023-07-02T01:58:51;3.03;;;2.50;;
12838;SDS011;6486;51.034;5.262;2023-07-02T02:01:17;4.87;;;2.50;;
12838;SDS011;6486;51.034;5.262;2023-07-02T02:03:42;5.20;;;2.73;;
12838;SDS011;6486;51.034;5.262;2023-07-02T02:06:08;3.17;;;2.53;;
12838;SDS011;6486;51.034;5.262;2023-07-02T02:08:34;5.70;;;3.13;;
12838;SDS011;6486;51.034;5.262;2023-07-02T02:10:59;5.60;;;2.13;;
12838;SDS011;6486;51.034;5.262;2023-07-02T02:13:25;3.13;;;2.43;;
12838;SDS011;6486;51.034;5.262;2023-07-02T02:15:51;6.07;;;3.37;;
12838;SDS011;6486;51.034;5.262;2023-07-02T02:18:19;8.07;;;3.27;;
12838;SDS011;6486;51.034;5.262;2023-07-02T02:20:45;3.37;;;2.87;;
12838;SDS011;6486;51.034;5.262;2023-07-02T02:23:10;4.00;;;3.10;;
12838;SDS011;6486;51.034;5.262;2023-07-02T02:25:36;5.33;;;2.37;;
12838;SDS011;6486;51.034;5.262;2023-07-02T02:28:02;4.43;;;2.70;;
12838;SDS011;6486;51.034;5.262;2023-07-02T02:30:27;8.17;;;3.27;;
12838;SDS011;6486;51.034;5.262;2023-07-02T02:32:53;8.47;;;3.53;;
12838;SDS011;6486;51.034;5.262;2023-07-02T02:35:18;5.03;;;2.57;;
12838;SDS011;6486;51.034;5.262;2023-07-02T02:37:44;8.50;;;4.10;;
12838;SDS011;6486;51.034;5.262;2023-07-02T02:40:10;5.47;;;3.27;;
12838;SDS011;6486;51.034;5.262;2023-07-02T02:42:36;4.57;;;3.70;;
12838;SDS011;6486;51.034;5.262;2023-07-02T02:45:03;7.40;;;2.57;;
12838;SDS011;6486;51.034;5.262;2023-07-02T02:47:29;5.93;;;3.27;;
12838;SDS011;6486;51.034;5.262;2023-07-02T02:49:54;5.63;;;2.43;;
12838;SDS011;6486;51.034;5.262;2023-07-02T02:52:20;4.80;;;2.80;;
12838;SDS011;6486;51.034;5.262;2023-07-02T02:54:46;3.10;;;2.77;;
12838;SDS011;6486;51.034;5.262;2023-07-02T02:57:11;4.23;;;3.83;;
12838;SDS011;6486;51.034;5.262;2023-07-02T02:59:38;4.47;;;3.50;;
12838;SDS011;6486;51.034;5.262;2023-07-02T03:02:04;4.97;;;3.23;;
12838;SDS011;6486;51.034;5.262;2023-07-02T03:04:29;6.90;;;3.33;;
12838;SDS011;6486;51.034;5.262;2023-07-02T03:06:55;4.87;;;3.33;;
12838;SDS011;6486;51.034;5.262;2023-07-02T03:09:21;3.00;;;2.30;;
12838;SDS011;6486;51.034;5.262;2023-07-02T03:11:47;12.57;;;3.57;;
12838;SDS011;6486;51.034;5.262;2023-07-02T03:14:13;9.93;;;4.30;;
12838;SDS011;6486;51.034;5.262;2023-07-02T03:16:39;5.97;;;4.30;;
12838;SDS011;6486;51.034;5.262;2023-07-02T03:19:06;5.20;;;4.20;;
12838;SDS011;6486;51.034;5.262;2023-07-02T03:21:31;13.70;;;4.23;;
12838;SDS011;6486;51.034;5.262;2023-07-02T03:23:57;7.50;;;4.20;;
12838;SDS011;6486;51.034;5.262;2023-07-02T03:26:23;23.23;;;5.40;;
12838;SDS011;6486;51.034;5.262;2023-07-02T03:28:49;11.90;;;3.20;;
12838;SDS011;6486;51.034;5.262;2023-07-02T03:31:14;5.00;;;3.77;;
12838;SDS011;6486;51.034;5.262;2023-07-02T03:33:40;5.37;;;2.77;;
12838;SDS011;6486;51.034;5.262;2023-07-02T03:36:06;6.07;;;3.17;;
12838;SDS011;6486;51.034;5.262;2023-07-02T03:38:31;6.43;;;3.80;;
12838;SDS011;6486;51.034;5.262;2023-07-02T03:40:57;4.07;;;2.97;;
12838;SDS011;6486;51.034;5.262;2023-07-02T03:43:23;4.50;;;3.30;;
12838;SDS011;6486;51.034;5.262;2023-07-02T03:45:51;7.40;;;3.30;;
12838;SDS011;6486;51.034;5.262;2023-07-02T03:48:17;10.33;;;4.13;;
12838;SDS011;6486;51.034;5.262;2023-07-02T03:50:43;5.07;;;2.83;;
12838;SDS011;6486;51.034;5.262;2023-07-02T03:53:08;16.10;;;5.17;;
12838;SDS011;6486;51.034;5.262;2023-07-02T03:55:34;9.23;;;3.27;;
12838;SDS011;6486;51.034;5.262;2023-07-02T03:58:00;5.10;;;3.13;;
12838;SDS011;6486;51.034;5.262;2023-07-02T04:00:26;6.83;;;3.33;;
12838;SDS011;6486;51.034;5.262;2023-07-02T04:02:51;11.87;;;3.97;;
12838;SDS011;6486;51.034;5.262;2023-07-02T04:05:17;5.70;;;3.87;;
12838;SDS011;6486;51.034;5.262;2023-07-02T04:07:42;4.97;;;3.57;;
12838;SDS011;6486;51.034;5.262;2023-07-02T04:10:08;7.67;;;3.90;;
12838;SDS011;6486;51.034;5.262;2023-07-02T04:12:34;6.50;;;3.70;;
12838;SDS011;6486;51.034;5.262;2023-07-02T04:14:59;5.80;;;2.87;;
12838;SDS011;6486;51.034;5.262;2023-07-02T04:17:25;6.43;;;3.10;;
12838;SDS011;6486;51.034;5.262;2023-07-02T04:19:53;9.03;;;4.90;;
12838;SDS011;6486;51.034;5.262;2023-07-02T04:22:20;6.33;;;4.53;;
12838;SDS011;6486;51.034;5.262;2023-07-02T04:24:45;4.83;;;3.50;;
12838;SDS011;6486;51.034;5.262;2023-07-02T04:27:13;8.87;;;3.80;;
12838;SDS011;6486;51.034;5.262;2023-07-02T04:29:43;6.73;;;3.17;;
12838;SDS011;6486;51.034;5.262;2023-07-02T04:32:12;8.70;;;3.97;;
12838;SDS011;6486;51.034;5.262;2023-07-02T04:34:37;5.40;;;3.73;;
12838;SDS011;6486;51.034;5.262;2023-07-02T04:37:03;7.43;;;3.47;;
12838;SDS011;6486;51.034;5.262;2023-07-02T04:39:30;7.23;;;4.73;;
12838;SDS011;6486;51.034;5.262;2023-07-02T04:41:55;7.83;;;3.80;;
12838;SDS011;6486;51.034;5.262;2023-07-02T04:44:21;9.23;;;3.83;;
12838;SDS011;6486;51.034;5.262;2023-07-02T04:46:54;9.33;;;4.07;;
12838;SDS011;6486;51.034;5.262;2023-07-02T04:49:26;3.57;;;3.27;;
12838;SDS011;6486;51.034;5.262;2023-07-02T04:51:52;7.90;;;3.43;;
12838;SDS011;6486;51.034;5.262;2023-07-02T04:54:21;8.77;;;3.70;;
12838;SDS011;6486;51.034;5.262;2023-07-02T04:56:47;5.97;;;4.23;;
12838;SDS011;6486;51.034;5.262;2023-07-02T04:59:14;6.87;;;3.57;;
12838;SDS011;6486;51.034;5.262;2023-07-02T05:01:40;10.60;;;4.50;;
12838;SDS011;6486;51.034;5.262;2023-07-02T05:04:06;9.00;;;4.57;;
12838;SDS011;6486;51.034;5.262;2023-07-02T05:06:32;6.33;;;3.10;;
12838;SDS011;6486;51.034;5.262;2023-07-02T05:08:57;5.00;;;3.33;;
12838;SDS011;6486;51.034;5.262;2023-07-02T05:11:23;9.90;;;3.50;;
12838;SDS011;6486;51.034;5.262;2023-07-02T05:13:49;5.77;;;2.73;;
12838;SDS011;6486;51.034;5.262;2023-07-02T05:16:14;10.70;;;4.50;;
12838;SDS011;6486;51.034;5.262;2023-07-02T05:18:40;7.43;;;3.80;;
12838;SDS011;6486;51.034;5.262;2023-07-02T05:21:06;7.63;;;3.67;;
12838;SDS011;6486;51.034;5.262;2023-07-02T05:23:31;5.57;;;3.60;;
12838;SDS011;6486;51.034;5.262;2023-07-02T05:25:57;10.93;;;4.03;;
12838;SDS011;6486;51.034;5.262;2023-07-02T05:28:23;6.10;;;4.00;;
12838;SDS011;6486;51.034;5.262;2023-07-02T05:30:49;7.67;;;3.40;;
12838;SDS011;6486;51.034;5.262;2023-07-02T05:40:18;6.00;;;3.65;;
12838;SDS011;6486;51.034;5.262;2023-07-02T05:42:44;10.27;;;4.80;;
12838;SDS011;6486;51.034;5.262;2023-07-02T05:45:10;8.10;;;4.22;;
12838;SDS011;6486;51.034;5.262;2023-07-02T05:47:36;9.18;;;5.18;;
12838;SDS011;6486;51.034;5.262;2023-07-02T05:50:01;11.80;;;6.03;;
12838;SDS011;6486;51.034;5.262;2023-07-02T05:52:27;11.23;;;5.33;;
12838;SDS011;6486;51.034;5.262;2023-07-02T05:54:52;14.13;;;5.57;;
12838;SDS011;6486;51.034;5.262;2023-07-02T05:57:18;13.23;;;5.07;;
12838;SDS011;6486;51.034;5.262;2023-07-02T05:59:44;14.15;;;4.53;;
12838;SDS011;6486;51.034;5.262;2023-07-02T06:04:29;10.52;;;5.03;;
12838;SDS011;6486;51.034;5.262;2023-07-02T06:06:54;9.65;;;4.70;;
12838;SDS011;6486;51.034;5.262;2023-07-02T06:11:39;9.45;;;5.40;;
12838;SDS011;6486;51.034;5.262;2023-07-02T06:14:05;9.03;;;4.83;;
12838;SDS011;6486;51.034;5.262;2023-07-02T06:18:52;11.18;;;5.03;;
12838;SDS011;6486;51.034;5.262;2023-07-02T06:28:14;9.75;;;5.07;;
12838;SDS011;6486;51.034;5.262;2023-07-02T06:30:40;8.55;;;4.65;;
12838;SDS011;6486;51.034;5.262;2023-07-02T06:33:06;7.07;;;3.07;;
12838;SDS011;6486;51.034;5.262;2023-07-02T06:35:31;5.03;;;3.63;;
12838;SDS011;6486;51.034;5.262;2023-07-02T06:37:57;10.90;;;4.43;;
12838;SDS011;6486;51.034;5.262;2023-07-02T06:40:22;10.57;;;4.43;;
12838;SDS011;6486;51.034;5.262;2023-07-02T06:42:48;6.03;;;3.77;;
12838;SDS011;6486;51.034;5.262;2023-07-02T06:45:13;7.93;;;4.27;;
12838;SDS011;6486;51.034;5.262;2023-07-02T06:50:15;11.40;;;4.10;;
12838;SDS011;6486;51.034;5.262;2023-07-02T06:52:40;10.77;;;3.47;;
12838;SDS011;6486;51.034;5.262;2023-07-02T06:55:06;5.17;;;4.00;;
12838;SDS011;6486;51.034;5.262;2023-07-02T06:57:32;4.17;;;2.73;;
12838;SDS011;6486;51.034;5.262;2023-07-02T07:00:00;4.47;;;3.93;;
12838;SDS011;6486;51.034;5.262;2023-07-02T07:02:26;5.63;;;3.37;;
12838;SDS011;6486;51.034;5.262;2023-07-02T07:04:52;14.33;;;4.70;;
12838;SDS011;6486;51.034;5.262;2023-07-02T07:07:18;4.73;;;3.43;;
12838;SDS011;6486;51.034;5.262;2023-07-02T07:09:44;3.73;;;2.63;;
12838;SDS011;6486;51.034;5.262;2023-07-02T07:12:10;7.87;;;3.43;;
12838;SDS011;6486;51.034;5.262;2023-07-02T07:14:35;8.40;;;4.03;;
12838;SDS011;6486;51.034;5.262;2023-07-02T07:17:01;5.13;;;3.00;;
12838;SDS011;6486;51.034;5.262;2023-07-02T07:19:27;7.40;;;3.73;;
12838;SDS011;6486;51.034;5.262;2023-07-02T07:21:53;2.93;;;2.63;;
12838;SDS011;6486;51.034;5.262;2023-07-02T07:24:18;5.57;;;3.07;;
12838;SDS011;6486;51.034;5.262;2023-07-02T07:26:44;7.50;;;3.20;;
12838;SDS011;6486;51.034;5.262;2023-07-02T07:29:10;5.77;;;3.13;;
12838;SDS011;6486;51.034;5.262;2023-07-02T07:31:36;9.83;;;3.33;;
12838;SDS011;6486;51.034;5.262;2023-07-02T07:34:02;7.33;;;3.03;;
12838;SDS011;6486;51.034;5.262;2023-07-02T07:36:27;9.33;;;3.90;;
12838;SDS011;6486;51.034;5.262;2023-07-02T07:38:53;13.20;;;5.00;;
12838;SDS011;6486;51.034;5.262;2023-07-02T07:41:19;4.47;;;3.73;;
12838;SDS011;6486;51.034;5.262;2023-07-02T07:43:44;12.50;;;3.43;;
12838;SDS011;6486;51.034;5.262;2023-07-02T07:46:10;5.90;;;3.60;;
12838;SDS011;6486;51.034;5.262;2023-07-02T07:48:35;8.37;;;3.73;;
12838;SDS011;6486;51.034;5.262;2023-07-02T07:51:01;6.97;;;2.27;;
12838;SDS011;6486;51.034;5.262;2023-07-02T07:53:26;5.33;;;2.87;;
12838;SDS011;6486;51.034;5.262;2023-07-02T07:55:52;4.10;;;2.30;;
12838;SDS011;6486;51.034;5.262;2023-07-02T07:58:18;16.03;;;4.27;;
12838;SDS011;6486;51.034;5.262;2023-07-02T08:00:43;10.47;;;3.47;;
12838;SDS011;6486;51.034;5.262;2023-07-02T08:03:09;4.63;;;3.03;;
12838;SDS011;6486;51.034;5.262;2023-07-02T08:05:35;9.83;;;3.57;;
12838;SDS011;6486;51.034;5.262;2023-07-02T08:08:01;2.83;;;2.13;;
12838;SDS011;6486;51.034;5.262;2023-07-02T08:10:27;5.10;;;2.37;;
12838;SDS011;6486;51.034;5.262;2023-07-02T08:12:52;5.43;;;3.53;;
12838;SDS011;6486;51.034;5.262;2023-07-02T08:15:18;7.07;;;2.53;;
12838;SDS011;6486;51.034;5.262;2023-07-02T08:17:44;5.67;;;2.73;;
12838;SDS011;6486;51.034;5.262;2023-07-02T08:20:10;7.07;;;3.43;;
12838;SDS011;6486;51.034;5.262;2023-07-02T08:22:39;11.63;;;4.07;;
12838;SDS011;6486;51.034;5.262;2023-07-02T08:25:05;4.60;;;3.00;;
12838;SDS011;6486;51.034;5.262;2023-07-02T08:27:31;7.27;;;3.53;;
12838;SDS011;6486;51.034;5.262;2023-07-02T08:29:57;6.17;;;3.83;;
12838;SDS011;6486;51.034;5.262;2023-07-02T08:32:23;7.37;;;3.00;;
12838;SDS011;6486;51.034;5.262;2023-07-02T08:34:48;4.70;;;2.67;;
12838;SDS011;6486;51.034;5.262;2023-07-02T08:37:15;8.60;;;4.37;;
12838;SDS011;6486;51.034;5.262;2023-07-02T08:39:41;6.80;;;2.53;;
12838;SDS011;6486;51.034;5.262;2023-07-02T08:42:07;4.17;;;3.20;;
12838;SDS011;6486;51.034;5.262;2023-07-02T08:44:33;5.00;;;2.20;;
12838;SDS011;6486;51.034;5.262;2023-07-02T08:47:00;5.00;;;2.77;;
12838;SDS011;6486;51.034;5.262;2023-07-02T08:49:26;13.43;;;2.57;;
12838;SDS011;6486;51.034;5.262;2023-07-02T08:51:52;8.23;;;3.73;;
12838;SDS011;6486;51.034;5.262;2023-07-02T08:54:18;7.73;;;2.53;;
12838;SDS011;6486;51.034;5.262;2023-07-02T08:56:44;6.30;;;2.57;;
12838;SDS011;6486;51.034;5.262;2023-07-02T08:59:11;5.63;;;2.37;;
12838;SDS011;6486;51.034;5.262;2023-07-02T09:01:46;8.23;;;3.90;;
12838;SDS011;6486;51.034;5.262;2023-07-02T09:04:17;4.50;;;2.53;;
12838;SDS011;6486;51.034;5.262;2023-07-02T09:06:45;4.37;;;2.17;;
12838;SDS011;6486;51.034;5.262;2023-07-02T09:09:11;2.87;;;1.30;;
12838;SDS011;6486;51.034;5.262;2023-07-02T09:11:45;3.10;;;1.57;;
12838;SDS011;6486;51.034;5.262;2023-07-02T09:14:23;2.47;;;1.83;;
12838;SDS011;6486;51.034;5.262;2023-07-02T09:16:50;10.23;;;2.17;;
12838;SDS011;6486;51.034;5.262;2023-07-02T09:19:27;2.77;;;1.43;;
12838;SDS011;6486;51.034;5.262;2023-07-02T09:21:53;15.07;;;2.93;;
12838;SDS011;6486;51.034;5.262;2023-07-02T09:24:22;5.97;;;2.33;;
12838;SDS011;6486;51.034;5.262;2023-07-02T09:26:49;3.87;;;2.27;;
12838;SDS011;6486;51.034;5.262;2023-07-02T09:29:21;3.70;;;1.50;;
12838;SDS011;6486;51.034;5.262;2023-07-02T09:31:57;7.93;;;1.90;;
12838;SDS011;6486;51.034;5.262;2023-07-02T09:34:31;4.50;;;1.43;;
12838;SDS011;6486;51.034;5.262;2023-07-02T09:36:57;2.90;;;1.40;;
12838;SDS011;6486;51.034;5.262;2023-07-02T09:39:34;1.87;;;1.70;;
12838;SDS011;6486;51.034;5.262;2023-07-02T09:42:02;6.50;;;2.23;;
12838;SDS011;6486;51.034;5.262;2023-07-02T09:44:31;4.70;;;2.07;;
12838;SDS011;6486;51.034;5.262;2023-07-02T09:47:04;2.30;;;2.07;;
12838;SDS011;6486;51.034;5.262;2023-07-02T09:49:34;1.93;;;1.10;;
12838;SDS011;6486;51.034;5.262;2023-07-02T09:52:07;2.03;;;1.83;;
12838;SDS011;6486;51.034;5.262;2023-07-02T09:54:34;7.97;;;1.40;;
12838;SDS011;6486;51.034;5.262;2023-07-02T09:57:01;6.27;;;1.40;;
12838;SDS011;6486;51.034;5.262;2023-07-02T09:59:28;2.87;;;1.60;;
12838;SDS011;6486;51.034;5.262;2023-07-02T10:01:54;3.20;;;1.30;;
12838;SDS011;6486;51.034;5.262;2023-07-02T10:04:20;5.93;;;2.93;;
12838;SDS011;6486;51.034;5.262;2023-07-02T10:06:50;3.20;;;1.73;;
12838;SDS011;6486;51.034;5.262;2023-07-02T10:09:17;7.37;;;2.30;;
12838;SDS011;6486;51.034;5.262;2023-07-02T10:11:44;3.50;;;1.30;;
12838;SDS011;6486;51.034;5.262;2023-07-02T10:14:10;3.10;;;1.53;;
12838;SDS011;6486;51.034;5.262;2023-07-02T10:16:52;2.67;;;1.10;;
12838;SDS011;6486;51.034;5.262;2023-07-02T10:19:19;3.73;;;1.20;;
12838;SDS011;6486;51.034;5.262;2023-07-02T10:21:45;3.03;;;1.77;;
12838;SDS011;6486;51.034;5.262;2023-07-02T10:24:24;2.53;;;2.00;;
12838;SDS011;6486;51.034;5.262;2023-07-02T10:27:00;0.90;;;0.80;;
12838;SDS011;6486;51.034;5.262;2023-07-02T10:29:26;2.37;;;2.17;;
12838;SDS011;6486;51.034;5.262;2023-07-02T10:31:56;4.00;;;1.20;;
12838;SDS011;6486;51.034;5.262;2023-07-02T10:34:32;2.40;;;1.83;;
12838;SDS011;6486;51.034;5.262;2023-07-02T10:37:02;2.93;;;1.30;;
12838;SDS011;6486;51.034;5.262;2023-07-02T10:39:29;2.57;;;1.47;;
12838;SDS011;6486;51.034;5.262;2023-07-02T10:42:05;7.97;;;1.90;;
12838;SDS011;6486;51.034;5.262;2023-07-02T10:44:35;3.43;;;1.83;;
12838;SDS011;6486;51.034;5.262;2023-07-02T10:47:12;6.00;;;2.03;;
12838;SDS011;6486;51.034;5.262;2023-07-02T10:49:37;4.27;;;1.87;;
12838;SDS011;6486;51.034;5.262;2023-07-02T10:52:03;1.77;;;1.37;;
12838;SDS011;6486;51.034;5.262;2023-07-02T10:54:45;2.47;;;1.70;;
12838;SDS011;6486;51.034;5.262;2023-07-02T10:57:15;2.93;;;2.33;;
12838;SDS011;6486;51.034;5.262;2023-07-02T10:59:45;3.97;;;1.67;;
12838;SDS011;6486;51.034;5.262;2023-07-02T11:02:11;12.50;;;3.20;;
12838;SDS011;6486;51.034;5.262;2023-07-02T11:04:37;2.23;;;2.07;;
12838;SDS011;6486;51.034;5.262;2023-07-02T11:07:04;2.70;;;2.07;;
12838;SDS011;6486;51.034;5.262;2023-07-02T11:09:29;3.50;;;2.20;;
12838;SDS011;6486;51.034;5.262;2023-07-02T11:11:59;3.93;;;2.13;;
12838;SDS011;6486;51.034;5.262;2023-07-02T11:14:26;2.73;;;1.50;;
12838;SDS011;6486;51.034;5.262;2023-07-02T11:16:54;7.70;;;2.87;;
12838;SDS011;6486;51.034;5.262;2023-07-02T11:19:21;28.90;;;2.17;;
12838;SDS011;6486;51.034;5.262;2023-07-02T11:21:50;3.83;;;1.80;;
12838;SDS011;6486;51.034;5.262;2023-07-02T11:24:25;6.23;;;2.00;;
12838;SDS011;6486;51.034;5.262;2023-07-02T11:26:53;9.67;;;2.40;;
12838;SDS011;6486;51.034;5.262;2023-07-02T11:29:19;2.10;;;1.73;;
12838;SDS011;6486;51.034;5.262;2023-07-02T11:31:44;5.73;;;1.43;;
12838;SDS011;6486;51.034;5.262;2023-07-02T11:34:14;5.00;;;2.13;;
12838;SDS011;6486;51.034;5.262;2023-07-02T11:36:44;4.07;;;2.37;;
12838;SDS011;6486;51.034;5.262;2023-07-02T11:39:10;5.80;;;2.73;;
12838;SDS011;6486;51.034;5.262;2023-07-02T11:41:37;3.90;;;1.80;;
12838;SDS011;6486;51.034;5.262;2023-07-02T11:44:03;11.90;;;2.90;;
12838;SDS011;6486;51.034;5.262;2023-07-02T11:46:29;4.90;;;2.83;;
12838;SDS011;6486;51.034;5.262;2023-07-02T11:48:55;2.73;;;1.57;;
12838;SDS011;6486;51.034;5.262;2023-07-02T11:51:21;12.63;;;2.67;;
12838;SDS011;6486;51.034;5.262;2023-07-02T11:53:47;4.90;;;1.73;;
12838;SDS011;6486;51.034;5.262;2023-07-02T11:56:12;4.70;;;2.57;;
12838;SDS011;6486;51.034;5.262;2023-07-02T11:58:38;4.57;;;2.13;;
12838;SDS011;6486;51.034;5.262;2023-07-02T12:01:04;2.17;;;1.83;;
12838;SDS011;6486;51.034;5.262;2023-07-02T12:03:30;6.27;;;3.10;;
12838;SDS011;6486;51.034;5.262;2023-07-02T12:05:56;3.87;;;2.67;;
12838;SDS011;6486;51.034;5.262;2023-07-02T12:08:21;4.27;;;2.53;;
12838;SDS011;6486;51.034;5.262;2023-07-02T12:10:47;8.97;;;2.53;;
12838;SDS011;6486;51.034;5.262;2023-07-02T12:13:13;2.63;;;1.97;;
12838;SDS011;6486;51.034;5.262;2023-07-02T12:15:38;6.93;;;3.63;;
12838;SDS011;6486;51.034;5.262;2023-07-02T12:18:04;3.43;;;1.90;;
12838;SDS011;6486;51.034;5.262;2023-07-02T12:20:30;5.77;;;2.67;;
12838;SDS011;6486;51.034;5.262;2023-07-02T12:22:56;3.53;;;2.50;;
12838;SDS011;6486;51.034;5.262;2023-07-02T12:25:21;3.53;;;2.20;;
12838;SDS011;6486;51.034;5.262;2023-07-02T12:27:47;5.07;;;3.03;;
12838;SDS011;6486;51.034;5.262;2023-07-02T12:30:12;3.07;;;1.60;;
12838;SDS011;6486;51.034;5.262;2023-07-02T12:32:42;4.90;;;1.77;;
12838;SDS011;6486;51.034;5.262;2023-07-02T12:35:09;7.97;;;2.10;;
12838;SDS011;6486;51.034;5.262;2023-07-02T12:37:34;2.43;;;1.50;;
12838;SDS011;6486;51.034;5.262;2023-07-02T12:40:00;4.73;;;2.07;;
12838;SDS011;6486;51.034;5.262;2023-07-02T12:42:26;2.93;;;1.97;;
12838;SDS011;6486;51.034;5.262;2023-07-02T12:44:52;5.77;;;2.70;;
12838;SDS011;6486;51.034;5.262;2023-07-02T12:47:17;2.77;;;1.93;;
12838;SDS011;6486;51.034;5.262;2023-07-02T12:49:43;8.90;;;2.50;;
12838;SDS011;6486;51.034;5.262;2023-07-02T12:52:08;2.77;;;1.67;;
12838;SDS011;6486;51.034;5.262;2023-07-02T12:54:34;4.90;;;2.90;;
12838;SDS011;6486;51.034;5.262;2023-07-02T12:57:00;5.20;;;1.50;;
12838;SDS011;6486;51.034;5.262;2023-07-02T12:59:25;5.23;;;1.83;;
12838;SDS011;6486;51.034;5.262;2023-07-02T13:01:51;2.97;;;1.87;;
12838;SDS011;6486;51.034;5.262;2023-07-02T13:04:16;4.10;;;1.50;;
12838;SDS011;6486;51.034;5.262;2023-07-02T13:06:42;2.57;;;1.40;;
12838;SDS011;6486;51.034;5.262;2023-07-02T13:09:09;3.70;;;1.93;;
12838;SDS011;6486;51.034;5.262;2023-07-02T13:11:35;2.70;;;1.53;;
12838;SDS011;6486;51.034;5.262;2023-07-02T13:14:01;8.47;;;2.77;;
12838;SDS011;6486;51.034;5.262;2023-07-02T13:16:26;3.83;;;2.23;;
12838;SDS011;6486;51.034;5.262;2023-07-02T13:18:52;4.40;;;1.60;;
12838;SDS011;6486;51.034;5.262;2023-07-02T13:21:20;5.10;;;1.60;;
12838;SDS011;6486;51.034;5.262;2023-07-02T13:23:46;2.97;;;1.73;;
12838;SDS011;6486;51.034;5.262;2023-07-02T13:26:11;8.77;;;2.77;;
12838;SDS011;6486;51.034;5.262;2023-07-02T13:28:37;5.53;;;2.20;;
12838;SDS011;6486;51.034;5.262;2023-07-02T13:31:03;5.10;;;1.77;;
12838;SDS011;6486;51.034;5.262;2023-07-02T13:33:29;9.77;;;2.00;;
12838;SDS011;6486;51.034;5.262;2023-07-02T13:35:55;10.77;;;2.30;;
12838;SDS011;6486;51.034;5.262;2023-07-02T13:38:21;6.03;;;2.20;;
12838;SDS011;6486;51.034;5.262;2023-07-02T13:40:47;4.23;;;2.07;;
12838;SDS011;6486;51.034;5.262;2023-07-02T13:43:13;3.97;;;2.53;;
12838;SDS011;6486;51.034;5.262;2023-07-02T13:45:39;6.80;;;2.27;;
12838;SDS011;6486;51.034;5.262;2023-07-02T13:48:04;4.47;;;1.50;;
12838;SDS011;6486;51.034;5.262;2023-07-02T13:50:30;3.37;;;2.20;;
12838;SDS011;6486;51.034;5.262;2023-07-02T13:52:56;5.63;;;1.70;;
12838;SDS011;6486;51.034;5.262;2023-07-02T13:55:21;3.70;;;1.50;;
12838;SDS011;6486;51.034;5.262;2023-07-02T13:57:52;7.67;;;1.90;;
12838;SDS011;6486;51.034;5.262;2023-07-02T14:00:25;3.20;;;1.60;;
12838;SDS011;6486;51.034;5.262;2023-07-02T14:02:52;5.33;;;3.37;;
12838;SDS011;6486;51.034;5.262;2023-07-02T14:05:18;2.53;;;1.67;;
12838;SDS011;6486;51.034;5.262;2023-07-02T14:07:44;4.33;;;2.00;;
12838;SDS011;6486;51.034;5.262;2023-07-02T14:10:10;5.00;;;2.03;;
12838;SDS011;6486;51.034;5.262;2023-07-02T14:12:37;6.07;;;2.00;;
12838;SDS011;6486;51.034;5.262;2023-07-02T14:15:03;2.60;;;1.93;;
12838;SDS011;6486;51.034;5.262;2023-07-02T14:17:30;2.63;;;1.47;;
12838;SDS011;6486;51.034;5.262;2023-07-02T14:19:55;1.73;;;1.47;;
12838;SDS011;6486;51.034;5.262;2023-07-02T14:22:21;3.37;;;1.33;;
12838;SDS011;6486;51.034;5.262;2023-07-02T14:24:46;2.70;;;1.33;;
12838;SDS011;6486;51.034;5.262;2023-07-02T14:27:12;3.73;;;1.73;;
12838;SDS011;6486;51.034;5.262;2023-07-02T14:29:38;4.83;;;1.67;;
12838;SDS011;6486;51.034;5.262;2023-07-02T14:32:04;5.33;;;2.63;;
12838;SDS011;6486;51.034;5.262;2023-07-02T14:34:30;2.73;;;1.53;;
12838;SDS011;6486;51.034;5.262;2023-07-02T14:36:56;3.57;;;2.23;;
12838;SDS011;6486;51.034;5.262;2023-07-02T14:39:23;6.33;;;2.50;;
12838;SDS011;6486;51.034;5.262;2023-07-02T14:41:49;1.87;;;1.57;;
12838;SDS011;6486;51.034;5.262;2023-07-02T14:44:14;3.53;;;2.17;;
12838;SDS011;6486;51.034;5.262;2023-07-02T14:46:40;4.73;;;1.80;;
12838;SDS011;6486;51.034;5.262;2023-07-02T14:49:07;3.73;;;1.60;;
12838;SDS011;6486;51.034;5.262;2023-07-02T14:51:33;2.97;;;1.60;;
12838;SDS011;6486;51.034;5.262;2023-07-02T14:53:59;4.77;;;2.17;;
12838;SDS011;6486;51.034;5.262;2023-07-02T14:56:26;1.90;;;1.17;;
12838;SDS011;6486;51.034;5.262;2023-07-02T14:58:52;2.13;;;1.53;;
12838;SDS011;6486;51.034;5.262;2023-07-02T15:01:17;3.13;;;1.23;;
12838;SDS011;6486;51.034;5.262;2023-07-02T15:03:43;2.93;;;1.83;;
12838;SDS011;6486;51.034;5.262;2023-07-02T15:06:10;5.10;;;2.10;;
12838;SDS011;6486;51.034;5.262;2023-07-02T15:08:37;3.20;;;1.67;;
12838;SDS011;6486;51.034;5.262;2023-07-02T15:11:03;3.20;;;1.33;;
12838;SDS011;6486;51.034;5.262;2023-07-02T15:13:29;3.83;;;1.97;;
12838;SDS011;6486;51.034;5.262;2023-07-02T15:15:55;5.30;;;2.10;;
12838;SDS011;6486;51.034;5.262;2023-07-02T15:18:20;3.40;;;2.53;;
12838;SDS011;6486;51.034;5.262;2023-07-02T15:20:46;9.17;;;3.07;;
12838;SDS011;6486;51.034;5.262;2023-07-02T15:23:15;2.30;;;1.67;;